Time;durP1;ratioP1;P1;durP2;ratioP2;P2;SDS_P1;SDS_P2;PMS_P1;PMS_P2;Temp;Humidity;BMP_temperature;BMP_pressure;BME280_temperature;BME280_humidity;BME280_pressure;Samples;Min_cycle;Max_cycle;Signal;HPM_P1;HPM_P2
2021/07/01 00:01:37;;;;;;;5.45;4.10;;;17.00;99.90;;;;;;5091288;28;20262;-69
2021/07/01 00:04:05;;;;;;;7.10;4.05;;;17.00;99.90;;;;;;5090618;28;20214;-69
2021/07/01 00:06:32;;;;;;;8.50;6.00;;;17.10;99.90;;;;;;5090609;28;20202;-71
2021/07/01 00:09:00;;;;;;;6.00;4.20;;;17.10;99.90;;;;;;5089926;28;20221;-73
2021/07/01 00:11:27;;;;;;;6.50;3.88;;;17.10;99.90;;;;;;5090437;28;20209;-71
2021/07/01 00:13:54;;;;;;;6.78;3.63;;;17.10;99.90;;;;;;5090227;28;20443;-74
2021/07/01 00:16:21;;;;;;;8.80;4.18;;;17.00;99.90;;;;;;5090453;28;20209;-73
2021/07/01 00:18:49;;;;;;;4.65;4.15;;;16.90;99.90;;;;;;5090249;28;20259;-71
2021/07/01 00:21:16;;;;;;;8.75;4.22;;;17.00;99.90;;;;;;5090156;28;20208;-70
2021/07/01 00:23:43;;;;;;;6.68;4.05;;;17.00;99.90;;;;;;5089365;28;20724;-70
2021/07/01 00:26:11;;;;;;;6.47;3.97;;;16.90;99.90;;;;;;5089131;28;20205;-75
2021/07/01 00:28:38;;;;;;;4.30;3.25;;;16.90;99.90;;;;;;5090474;28;20660;-70
2021/07/01 00:31:05;;;;;;;4.53;4.13;;;17.00;99.90;;;;;;5090658;28;20267;-68
2021/07/01 00:33:32;;;;;;;5.45;4.07;;;17.00;99.90;;;;;;5090274;28;20714;-68
2021/07/01 00:35:59;;;;;;;5.00;3.55;;;16.90;99.90;;;;;;5089729;28;20255;-71
2021/07/01 00:38:26;;;;;;;6.68;3.85;;;16.90;99.90;;;;;;5081102;28;20210;-74
2021/07/01 00:40:53;;;;;;;7.68;3.88;;;16.90;99.90;;;;;;5089988;28;20622;-76
2021/07/01 00:43:21;;;;;;;7.82;3.80;;;16.90;99.90;;;;;;5090077;28;20229;-70
2021/07/01 00:45:49;;;;;;;5.72;3.45;;;16.80;99.90;;;;;;5089934;28;20206;-74
2021/07/01 00:48:16;;;;;;;4.18;3.28;;;16.90;99.90;;;;;;5089771;28;20278;-71
2021/07/01 00:50:43;;;;;;;3.80;3.05;;;17.00;99.90;;;;;;5089104;28;20282;-75
2021/07/01 00:53:10;;;;;;;4.00;2.60;;;16.90;99.90;;;;;;5089968;28;20673;-73
2021/07/01 00:55:37;;;;;;;6.45;3.55;;;16.90;99.90;;;;;;5090539;28;20615;-70
2021/07/01 00:58:06;;;;;;;4.80;3.28;;;16.90;99.90;;;;;;5090313;28;20721;-70
2021/07/01 01:00:46;;;;;;;4.20;3.38;;;16.80;99.90;;;;;;5090293;28;20204;-73
2021/07/01 01:03:12;;;;;;;4.55;3.53;;;16.80;99.90;;;;;;5089958;28;20228;-74
2021/07/01 01:05:39;;;;;;;3.83;2.85;;;16.70;99.90;;;;;;5089560;28;20206;-71
2021/07/01 01:08:07;;;;;;;3.20;2.80;;;16.70;99.90;;;;;;5090643;28;20209;-70
2021/07/01 01:10:34;;;;;;;3.95;3.25;;;16.70;99.90;;;;;;5090303;28;20202;-76
2021/07/01 01:13:01;;;;;;;4.88;3.65;;;16.50;99.90;;;;;;5089843;28;20213;-74
2021/07/01 01:15:28;;;;;;;6.47;3.72;;;16.50;99.90;;;;;;5089688;28;20781;-72
2021/07/01 01:17:57;;;;;;;3.33;3.03;;;16.50;99.90;;;;;;5089716;28;20209;-73
2021/07/01 01:20:23;;;;;;;5.63;3.28;;;16.50;99.90;;;;;;5092538;28;20205;-73
2021/07/01 01:22:52;;;;;;;3.13;2.83;;;16.40;99.90;;;;;;5089448;28;20749;-71
2021/07/01 01:25:19;;;;;;;4.47;3.33;;;16.40;99.90;;;;;;5090159;28;20262;-74
2021/07/01 01:27:46;;;;;;;6.68;4.40;;;16.40;99.90;;;;;;5089101;28;20213;-74
2021/07/01 01:30:14;;;;;;;3.88;3.20;;;16.40;99.90;;;;;;5090029;28;20258;-73
2021/07/01 01:32:41;;;;;;;4.20;3.50;;;16.40;99.90;;;;;;5092711;28;20298;-70
2021/07/01 01:35:09;;;;;;;3.38;3.08;;;16.30;99.90;;;;;;5093915;28;20271;-70
2021/07/01 01:37:36;;;;;;;4.03;3.67;;;16.30;99.90;;;;;;5093622;28;20213;-70
2021/07/01 01:40:05;;;;;;;5.78;3.95;;;16.20;99.90;;;;;;5092920;28;20206;-73
2021/07/01 01:42:32;;;;;;;4.63;2.80;;;16.20;99.90;;;;;;5093683;28;20225;-74
2021/07/01 01:44:59;;;;;;;3.85;3.47;;;16.20;99.90;;;;;;5092558;28;20669;-76
2021/07/01 01:47:26;;;;;;;7.28;4.00;;;16.20;99.90;;;;;;5093172;28;20637;-72
2021/07/01 01:49:53;;;;;;;3.50;3.03;;;16.20;99.90;;;;;;5092275;28;20206;-70
2021/07/01 01:52:20;;;;;;;4.22;3.72;;;16.20;99.90;;;;;;5093312;28;20206;-70
2021/07/01 01:54:47;;;;;;;8.02;3.42;;;16.20;99.90;;;;;;5091629;28;20259;-72
2021/07/01 01:57:15;;;;;;;7.90;3.42;;;16.10;99.90;;;;;;5093246;28;20251;-72
2021/07/01 01:59:42;;;;;;;4.68;3.50;;;16.10;99.90;;;;;;5092879;28;20202;-73
2021/07/01 02:02:09;;;;;;;5.35;3.25;;;16.20;99.90;;;;;;5093022;28;20210;-70
2021/07/01 02:04:36;;;;;;;6.32;3.83;;;16.10;99.90;;;;;;5093183;28;20244;-75
2021/07/01 02:07:03;;;;;;;3.72;3.42;;;16.10;99.90;;;;;;5092687;28;20250;-75
2021/07/01 02:09:30;;;;;;;4.22;3.60;;;16.10;99.90;;;;;;5092815;28;20218;-76
2021/07/01 02:11:57;;;;;;;3.67;3.33;;;16.10;99.90;;;;;;5092364;28;20206;-74
2021/07/01 02:14:25;;;;;;;3.53;2.80;;;16.10;99.90;;;;;;5092863;28;20209;-75
2021/07/01 02:16:52;;;;;;;3.88;3.58;;;15.90;99.90;;;;;;5092501;28;20209;-76
2021/07/01 02:19:19;;;;;;;4.35;3.67;;;15.90;99.90;;;;;;5093042;28;20209;-75
2021/07/01 02:21:46;;;;;;;5.00;3.75;;;15.90;99.90;;;;;;5092238;28;20734;-74
2021/07/01 02:24:13;;;;;;;5.32;3.38;;;16.00;99.90;;;;;;5092693;28;20572;-76
2021/07/01 02:26:40;;;;;;;3.70;3.40;;;16.00;99.90;;;;;;5092624;28;20210;-75
2021/07/01 02:29:07;;;;;;;5.30;3.00;;;16.00;99.90;;;;;;5092861;28;20259;-72
2021/07/01 02:31:35;;;;;;;7.65;4.15;;;16.00;99.90;;;;;;5093152;28;20251;-76
2021/07/01 02:34:02;;;;;;;4.00;3.65;;;15.90;99.90;;;;;;5092200;28;20267;-71
2021/07/01 02:36:29;;;;;;;6.82;3.95;;;15.90;99.90;;;;;;5092541;28;20258;-71
2021/07/01 02:38:56;;;;;;;5.63;3.88;;;15.90;99.90;;;;;;5092412;28;20213;-75
2021/07/01 02:41:23;;;;;;;9.77;4.65;;;15.90;99.90;;;;;;5092123;28;20255;-75
2021/07/01 02:43:50;;;;;;;4.07;3.60;;;15.90;99.90;;;;;;5091266;28;20229;-71
2021/07/01 02:46:17;;;;;;;9.00;5.50;;;15.90;99.90;;;;;;5092178;28;20205;-70
2021/07/01 02:48:46;;;;;;;4.75;3.80;;;15.80;99.90;;;;;;5091923;28;20208;-70
2021/07/01 02:51:13;;;;;;;5.18;3.80;;;15.80;99.90;;;;;;5091946;28;20259;-75
2021/07/01 02:53:40;;;;;;;4.65;3.67;;;15.90;99.90;;;;;;5092289;28;20201;-73
2021/07/01 02:56:07;;;;;;;5.28;4.45;;;15.80;99.90;;;;;;5092694;28;20270;-71
2021/07/01 02:58:34;;;;;;;4.43;3.58;;;15.80;99.90;;;;;;5092585;28;20209;-78
2021/07/01 03:01:01;;;;;;;6.53;4.18;;;15.80;99.90;;;;;;5091905;28;20209;-69
2021/07/01 03:03:28;;;;;;;5.00;3.47;;;15.80;99.90;;;;;;5091747;28;20279;-74
2021/07/01 03:05:57;;;;;;;7.45;4.18;;;15.80;99.90;;;;;;5091788;28;20263;-72
2021/07/01 03:08:24;;;;;;;3.80;3.47;;;15.70;99.90;;;;;;5091440;28;20661;-75
2021/07/01 03:10:51;;;;;;;6.07;4.25;;;15.70;99.90;;;;;;5091695;28;20655;-68
2021/07/01 03:13:18;;;;;;;6.18;4.43;;;15.80;99.90;;;;;;5091117;28;20259;-74
2021/07/01 03:15:45;;;;;;;6.20;4.40;;;15.80;99.90;;;;;;5090676;28;20201;-69
2021/07/01 03:18:11;;;;;;;5.63;3.97;;;15.80;99.90;;;;;;5091559;28;20684;-69
2021/07/01 03:20:39;;;;;;;6.38;4.50;;;15.80;99.90;;;;;;5086573;28;20205;-68
2021/07/01 03:23:07;;;;;;;7.53;5.07;;;15.70;99.90;;;;;;5090265;28;20237;-74
2021/07/01 03:25:34;;;;;;;6.05;4.53;;;15.70;99.90;;;;;;5089233;28;20254;-68
2021/07/01 03:28:01;;;;;;;6.63;5.03;;;15.60;99.90;;;;;;5090316;28;21102;-69
2021/07/01 03:30:28;;;;;;;6.20;4.65;;;15.70;99.90;;;;;;5090839;28;20724;-68
2021/07/01 03:32:55;;;;;;;8.60;5.05;;;15.70;99.90;;;;;;5090288;28;20206;-73
2021/07/01 03:35:22;;;;;;;8.27;5.00;;;15.70;99.90;;;;;;5090689;28;20209;-74
2021/07/01 03:37:49;;;;;;;5.40;4.80;;;15.70;99.90;;;;;;5090577;28;20251;-74
2021/07/01 03:40:17;;;;;;;5.35;4.47;;;15.60;99.90;;;;;;5101667;28;20202;-71
2021/07/01 03:42:44;;;;;;;4.82;4.43;;;15.60;99.90;;;;;;5090588;28;20209;-70
2021/07/01 03:45:12;;;;;;;6.85;4.45;;;15.60;99.90;;;;;;5093627;28;20205;-75
2021/07/01 03:47:39;;;;;;;7.68;5.55;;;15.60;99.90;;;;;;5091634;28;20202;-74
2021/07/01 03:50:07;;;;;;;6.13;4.90;;;15.60;99.90;;;;;;5085630;28;20213;-73
2021/07/01 03:52:34;;;;;;;6.53;5.47;;;15.60;99.90;;;;;;5090064;28;20673;-74
2021/07/01 03:55:01;;;;;;;5.30;4.75;;;15.60;99.90;;;;;;5088663;28;20218;-76
2021/07/01 03:57:29;;;;;;;5.25;4.75;;;15.60;99.90;;;;;;5089490;28;20669;-71
2021/07/01 03:59:57;;;;;;;5.30;4.80;;;15.60;99.90;;;;;;5087239;28;20246;-74
2021/07/01 04:02:24;;;;;;;5.20;4.20;;;15.60;99.90;;;;;;5090874;28;20259;-76
2021/07/01 04:04:51;;;;;;;3.95;3.65;;;15.50;99.90;;;;;;5089601;28;20232;-76
2021/07/01 04:07:18;;;;;;;4.70;3.80;;;15.40;99.90;;;;;;5090870;28;20198;-76
2021/07/01 04:09:45;;;;;;;7.50;4.68;;;15.40;99.90;;;;;;5099486;28;20216;-76
2021/07/01 04:12:12;;;;;;;8.13;4.38;;;15.50;99.90;;;;;;5090237;28;20247;-69
2021/07/01 04:14:40;;;;;;;5.90;4.45;;;15.40;99.90;;;;;;5090752;28;20262;-73
2021/07/01 04:17:07;;;;;;;5.50;4.28;;;15.40;99.90;;;;;;5102603;28;20250;-69
2021/07/01 04:19:34;;;;;;;6.72;5.22;;;15.50;99.90;;;;;;5089081;28;20197;-76
2021/07/01 04:22:01;;;;;;;5.85;4.00;;;15.40;99.90;;;;;;5088036;28;20213;-75
2021/07/01 04:24:28;;;;;;;6.43;4.15;;;15.30;99.90;;;;;;5090952;28;20669;-69
2021/07/01 04:26:55;;;;;;;5.60;4.97;;;15.40;99.90;;;;;;5088917;28;20247;-70
2021/07/01 04:29:22;;;;;;;6.85;4.70;;;15.40;99.90;;;;;;5089124;28;20696;-76
2021/07/01 04:31:51;;;;;;;5.30;4.80;;;15.50;99.90;;;;;;5089628;28;20279;-73
2021/07/01 04:34:18;;;;;;;4.97;3.95;;;15.50;99.90;;;;;;5088921;28;20240;-71
2021/07/01 04:36:44;;;;;;;5.07;4.05;;;15.50;99.90;;;;;;5088539;28;20247;-74
2021/07/01 04:39:11;;;;;;;4.43;4.00;;;15.50;99.90;;;;;;5090126;28;20206;-70
2021/07/01 04:41:38;;;;;;;5.35;4.22;;;15.40;99.90;;;;;;5089738;28;20201;-70
2021/07/01 04:44:05;;;;;;;6.72;4.55;;;15.50;99.90;;;;;;5090081;28;20777;-71
2021/07/01 04:46:32;;;;;;;6.38;4.53;;;15.50;99.90;;;;;;5091722;28;20266;-70
2021/07/01 04:49:01;;;;;;;4.15;3.75;;;15.50;99.90;;;;;;5089526;28;20205;-71
2021/07/01 04:51:28;;;;;;;5.68;4.45;;;15.50;99.90;;;;;;5086765;28;20209;-70
2021/07/01 04:53:55;;;;;;;7.38;4.68;;;15.50;99.90;;;;;;5089339;28;20256;-72
2021/07/01 04:56:22;;;;;;;6.60;4.38;;;15.60;99.90;;;;;;5087424;28;20198;-75
2021/07/01 04:58:49;;;;;;;5.28;4.78;;;15.60;99.90;;;;;;5088324;28;20247;-74
2021/07/01 05:01:16;;;;;;;5.97;4.43;;;15.60;99.90;;;;;;5089633;28;20251;-72
2021/07/01 05:03:44;;;;;;;7.13;5.28;;;15.60;99.90;;;;;;5088129;28;20271;-77
2021/07/01 05:06:12;;;;;;;9.02;5.07;;;15.70;99.90;;;;;;5090207;28;20292;-78
2021/07/01 05:08:39;;;;;;;6.55;5.32;;;15.80;99.90;;;;;;5094100;28;20738;-69
2021/07/01 05:11:06;;;;;;;5.60;5.00;;;15.80;99.90;;;;;;5093511;28;20202;-69
2021/07/01 05:13:33;;;;;;;9.38;5.50;;;15.80;99.90;;;;;;5093061;28;20205;-75
2021/07/01 05:16:00;;;;;;;7.82;5.00;;;15.80;99.90;;;;;;5093489;28;20259;-75
2021/07/01 05:18:27;;;;;;;9.13;6.03;;;15.90;99.90;;;;;;5092028;28;20201;-70
2021/07/01 05:20:54;;;;;;;10.48;6.93;;;15.90;99.90;;;;;;5091209;28;20262;-70
2021/07/01 05:23:22;;;;;;;7.65;5.88;;;16.00;99.90;;;;;;5093189;28;20209;-75
2021/07/01 05:25:49;;;;;;;9.05;6.88;;;16.00;99.90;;;;;;5079230;28;20259;-76
2021/07/01 05:28:16;;;;;;;7.18;6.20;;;16.00;99.90;;;;;;5091593;28;20620;-72
2021/07/01 05:30:43;;;;;;;10.88;6.28;;;16.10;99.90;;;;;;5092143;28;20669;-76
2021/07/01 05:33:10;;;;;;;10.43;7.72;;;16.20;99.90;;;;;;5093207;28;20669;-76
2021/07/01 05:35:37;;;;;;;8.32;6.32;;;16.30;99.90;;;;;;5093887;28;20680;-71
2021/07/01 05:38:05;;;;;;;8.63;6.25;;;16.40;99.90;;;;;;5091378;28;20624;-71
2021/07/01 05:40:33;;;;;;;9.05;6.53;;;16.60;99.90;;;;;;5090739;28;20314;-74
2021/07/01 05:43:01;;;;;;;17.40;5.97;;;16.60;99.90;;;;;;5091186;28;20586;-71
2021/07/01 05:45:28;;;;;;;10.55;6.88;;;16.60;99.90;;;;;;5093170;28;20450;-71
2021/07/01 05:47:55;;;;;;;7.80;6.25;;;16.70;99.90;;;;;;5094146;28;20205;-71
2021/07/01 05:50:22;;;;;;;9.20;6.38;;;16.70;99.90;;;;;;5091590;28;20254;-70
2021/07/01 05:52:53;;;;;;;8.10;7.22;;;16.70;99.90;;;;;;5091881;28;20206;-70
2021/07/01 05:55:20;;;;;;;8.32;7.20;;;16.80;99.90;;;;;;5092531;28;20685;-71
2021/07/01 05:57:49;;;;;;;8.60;6.05;;;16.90;99.90;;;;;;5091021;28;20258;-75
2021/07/01 06:00:18;;;;;;;10.75;6.82;;;17.10;99.90;;;;;;5097686;28;20205;-71
2021/07/01 06:02:46;;;;;;;12.82;7.25;;;17.20;99.90;;;;;;5099770;28;20665;-70
2021/07/01 06:05:13;;;;;;;11.95;6.80;;;17.20;99.90;;;;;;5092128;28;20720;-72
2021/07/01 06:07:42;;;;;;;9.98;7.15;;;17.20;99.90;;;;;;5092713;28;20268;-70
2021/07/01 06:10:13;;;;;;;10.63;6.53;;;17.30;99.90;;;;;;5091069;28;20258;-74
2021/07/01 06:12:41;;;;;;;9.00;5.93;;;17.40;99.90;;;;;;5092455;28;20201;-70
2021/07/01 06:15:10;;;;;;;8.63;6.63;;;17.50;99.90;;;;;;5090420;28;20734;-71
2021/07/01 06:17:38;;;;;;;8.13;6.88;;;17.60;99.90;;;;;;5092008;28;20201;-71
2021/07/01 06:20:08;;;;;;;9.82;6.93;;;17.60;99.90;;;;;;5092074;28;20296;-74
2021/07/01 06:22:35;;;;;;;7.90;6.57;;;17.60;99.90;;;;;;5093272;28;20205;-71
2021/07/01 06:25:03;;;;;;;14.25;8.13;;;17.80;99.90;;;;;;5091261;28;20240;-73
2021/07/01 06:27:34;;;;;;;7.88;6.60;;;17.90;99.90;;;;;;5088998;28;20209;-70
2021/07/01 06:30:04;;;;;;;10.23;7.35;;;18.00;99.90;;;;;;5089841;28;20574;-69
2021/07/01 06:32:40;;;;;;;10.98;7.00;;;18.20;99.90;;;;;;5090020;28;20630;-70
2021/07/01 06:35:08;;;;;;;9.77;6.93;;;18.20;99.90;;;;;;5081620;28;20630;-69
2021/07/01 06:37:35;;;;;;;15.60;7.82;;;18.30;99.90;;;;;;5086992;28;20217;-69
2021/07/01 06:40:05;;;;;;;10.18;7.22;;;18.50;99.90;;;;;;5091899;28;20213;-75
2021/07/01 06:42:34;;;;;;;8.27;7.45;;;18.50;99.90;;;;;;5090458;28;20201;-71
2021/07/01 06:45:04;;;;;;;9.63;7.82;;;18.70;99.90;;;;;;5091423;28;20786;-73
2021/07/01 06:47:31;;;;;;;11.82;7.15;;;18.70;99.90;;;;;;5092297;28;20213;-77
2021/07/01 06:50:01;;;;;;;8.60;6.38;;;18.90;99.90;;;;;;5091363;28;20225;-76
2021/07/01 06:52:28;;;;;;;6.90;5.55;;;19.10;99.90;;;;;;5092535;28;20562;-78
2021/07/01 06:54:55;;;;;;;14.13;8.60;;;19.30;99.90;;;;;;5091511;28;20258;-76
2021/07/01 06:57:23;;;;;;;10.30;6.70;;;19.40;99.90;;;;;;5091938;28;20258;-77
2021/07/01 06:59:51;;;;;;;18.98;7.35;;;19.40;99.90;;;;;;5088482;28;20210;-75
2021/07/01 07:02:20;;;;;;;8.90;7.25;;;19.30;99.90;;;;;;5091383;28;20201;-75
2021/07/01 07:04:47;;;;;;;10.70;6.30;;;19.40;99.90;;;;;;5090965;28;20231;-79
2021/07/01 07:07:16;;;;;;;17.15;8.10;;;19.40;99.90;;;;;;5090791;28;20632;-77
2021/07/01 07:09:43;;;;;;;11.38;6.72;;;19.60;99.90;;;;;;5091326;28;20221;-79
2021/07/01 07:12:11;;;;;;;8.48;5.85;;;19.80;99.90;;;;;;5091662;28;20271;-78
2021/07/01 07:14:38;;;;;;;6.68;5.95;;;19.80;99.90;;;;;;5091599;28;20301;-77
2021/07/01 07:17:07;;;;;;;15.45;5.78;;;19.80;99.90;;;;;;5091471;28;20254;-76
2021/07/01 07:19:35;;;;;;;8.80;4.50;;;19.90;99.90;;;;;;5091469;28;20263;-80
2021/07/01 07:22:04;;;;;;;5.68;4.53;;;20.20;99.90;;;;;;5091078;28;20206;-76
2021/07/01 07:24:36;;;;;;;5.22;4.63;;;20.40;99.90;;;;;;5090353;28;20270;-77
2021/07/01 07:27:04;;;;;;;5.53;4.40;;;20.40;99.90;;;;;;5089196;28;20198;-75
2021/07/01 07:29:35;;;;;;;7.43;4.28;;;20.50;99.90;;;;;;5093412;28;20267;-75
2021/07/01 07:32:04;;;;;;;5.43;3.63;;;20.70;99.90;;;;;;5090637;28;20286;-79
2021/07/01 07:34:32;;;;;;;17.85;5.15;;;20.90;99.90;;;;;;5091120;28;20201;-79
2021/07/01 07:37:00;;;;;;;9.80;4.47;;;21.10;99.90;;;;;;5090420;28;20288;-76
2021/07/01 07:39:28;;;;;;;5.85;4.07;;;21.10;99.90;;;;;;5090986;28;20202;-77
2021/07/01 07:41:57;;;;;;;15.77;5.00;;;21.30;99.90;;;;;;5090801;28;20680;-75
2021/07/01 07:44:24;;;;;;;8.43;3.70;;;21.40;99.90;;;;;;5086256;28;20233;-77
2021/07/01 07:46:52;;;;;;;4.82;3.38;;;22.70;99.90;;;;;;5090575;28;20734;-76
2021/07/01 07:49:19;;;;;;;4.70;3.40;;;23.30;99.90;;;;;;5091054;28;20266;-77
2021/07/01 07:51:49;;;;;;;3.97;2.50;;;23.50;99.90;;;;;;5090367;28;20214;-76
2021/07/01 07:54:23;;;;;;;9.65;3.05;;;23.60;99.90;;;;;;5090989;28;20212;-77
2021/07/01 07:56:54;;;;;;;2.15;1.95;;;22.80;99.90;;;;;;5090485;28;20233;-76
2021/07/01 07:59:24;;;;;;;5.55;2.88;;;22.70;99.90;;;;;;5090272;28;20205;-76
2021/07/01 08:01:52;;;;;;;3.17;2.10;;;22.80;99.90;;;;;;5087423;28;20205;-75
2021/07/01 08:04:23;;;;;;;2.88;2.30;;;22.80;99.90;;;;;;5086409;28;20221;-74
2021/07/01 08:06:53;;;;;;;5.50;3.17;;;23.10;99.90;;;;;;5086787;28;20262;-76
2021/07/01 08:09:22;;;;;;;3.00;2.75;;;24.60;99.90;;;;;;5090098;28;20217;-72
2021/07/01 08:11:50;;;;;;;8.18;2.15;;;24.40;99.90;;;;;;5089127;28;20267;-74
2021/07/01 08:14:17;;;;;;;3.88;2.63;;;24.80;99.90;;;;;;5088618;28;20304;-74
2021/07/01 08:16:47;;;;;;;2.60;2.40;;;23.90;99.90;;;;;;5089627;28;20251;-75
2021/07/01 08:19:14;;;;;;;4.10;2.10;;;24.30;99.90;;;;;;5090865;28;20205;-76
2021/07/01 08:21:41;;;;;;;5.43;2.30;;;26.00;99.90;;;;;;5089723;28;20253;-71
2021/07/01 08:24:09;;;;;;;2.33;2.13;;;25.90;99.90;;;;;;5090022;28;20217;-72
2021/07/01 08:26:37;;;;;;;4.55;2.95;;;25.20;99.90;;;;;;5090499;28;20286;-73
2021/07/01 08:29:04;;;;;;;2.63;2.20;;;24.40;99.90;;;;;;5088368;28;20209;-73
2021/07/01 08:31:32;;;;;;;2.33;1.90;;;23.80;99.90;;;;;;5089054;28;20267;-75
2021/07/01 08:34:07;;;;;;;5.90;2.38;;;23.50;99.90;;;;;;5089588;28;20206;-75
2021/07/01 08:36:36;;;;;;;2.10;1.85;;;23.40;99.90;;;;;;5085507;28;20206;-77
2021/07/01 08:39:08;;;;;;;14.18;3.20;;;23.30;99.90;;;;;;5088394;28;20209;-74
2021/07/01 08:41:35;;;;;;;6.63;2.90;;;23.30;99.90;;;;;;5090362;28;20204;-76
2021/07/01 08:44:06;;;;;;;2.83;2.30;;;23.70;99.90;;;;;;5094079;28;20212;-78
2021/07/01 08:46:47;;;;;;;2.42;2.33;;;24.00;99.90;;;;;;5094412;28;20700;-81
2021/07/01 08:49:31;;;;;;;6.70;2.30;;;24.10;99.90;;;;;;5093988;28;20669;-77
2021/07/01 08:52:03;;;;;;;4.18;2.08;;;24.90;99.90;;;;;;5090922;28;20213;-78
2021/07/01 08:54:33;;;;;;;3.42;2.58;;;24.50;99.90;;;;;;5094121;28;20205;-78
2021/07/01 08:57:00;;;;;;;2.88;2.17;;;24.60;99.90;;;;;;5093757;28;20212;-78
2021/07/01 08:59:34;;;;;;;3.70;2.05;;;24.40;99.90;;;;;;5093581;28;20209;-79
2021/07/01 09:02:04;;;;;;;3.67;1.90;;;23.90;99.90;;;;;;5093250;28;20205;-78
2021/07/01 09:04:47;;;;;;;2.33;1.67;;;24.50;99.90;;;;;;5091551;28;20292;-76
2021/07/01 09:07:20;;;;;;;2.55;2.35;;;25.20;99.90;;;;;;5091521;28;20741;-79
2021/07/01 09:09:54;;;;;;;2.08;1.83;;;25.50;99.90;;;;;;5091604;28;20210;-79
2021/07/01 09:12:24;;;;;;;5.13;2.20;;;25.00;99.90;;;;;;5082873;28;20215;-79
2021/07/01 09:14:58;;;;;;;5.53;2.35;;;24.90;99.90;;;;;;5093866;28;20676;-75
2021/07/01 09:17:27;;;;;;;2.38;2.25;;;25.30;99.90;;;;;;5093655;28;20201;-77
2021/07/01 09:19:56;;;;;;;4.38;1.60;;;25.30;99.90;;;;;;5093265;28;20252;-78
2021/07/01 09:22:24;;;;;;;1.83;1.73;;;26.00;99.90;;;;;;5093566;28;20669;-80
2021/07/01 09:24:52;;;;;;;2.92;2.30;;;25.90;99.90;;;;;;5093171;28;20233;-79
2021/07/01 09:27:20;;;;;;;3.67;1.85;;;26.40;99.90;;;;;;5093570;28;20609;-83
2021/07/01 09:29:50;;;;;;;2.70;2.00;;;26.10;99.90;;;;;;5093403;28;20266;-81
2021/07/01 09:32:18;;;;;;;4.82;2.55;;;26.70;99.90;;;;;;5093689;28;20202;-77
2021/07/01 09:34:47;;;;;;;2.05;1.95;;;27.50;99.90;;;;;;5090776;28;20206;-76
2021/07/01 09:37:17;;;;;;;2.67;2.00;;;26.80;99.90;;;;;;5092194;28;20255;-75
2021/07/01 09:39:46;;;;;;;2.40;2.20;;;26.60;99.90;;;;;;5092395;28;20626;-78
2021/07/01 09:42:13;;;;;;;1.73;1.63;;;27.00;99.90;;;;;;5093643;28;20255;-78
2021/07/01 09:44:41;;;;;;;4.03;1.27;;;27.30;99.90;;;;;;5092898;28;20251;-78
2021/07/01 09:47:10;;;;;;;2.88;2.28;;;26.50;99.90;;;;;;5088858;28;20251;-77
2021/07/01 09:49:39;;;;;;;3.60;1.90;;;26.60;99.90;;;;;;5091183;28;20205;-77
2021/07/01 09:52:09;;;;;;;3.33;2.03;;;26.50;99.90;;;;;;5092953;28;20214;-80
2021/07/01 09:54:39;;;;;;;2.38;2.17;;;26.90;99.90;;;;;;5091604;28;20205;-81
2021/07/01 09:57:09;;;;;;;2.20;2.00;;;28.10;99.90;;;;;;5093285;28;20669;-75
2021/07/01 09:59:44;;;;;;;1.80;1.70;;;27.70;99.90;;;;;;5093336;28;20304;-81
2021/07/01 10:02:16;;;;;;;2.40;2.20;;;29.60;99.90;;;;;;5092939;28;20205;-79
2021/07/01 10:04:46;;;;;;;3.20;1.73;;;29.90;99.90;;;;;;5092425;28;20205;-77
2021/07/01 10:07:14;;;;;;;1.58;1.48;;;29.30;99.90;;;;;;5092943;28;20619;-77
2021/07/01 10:09:43;;;;;;;4.50;2.10;;;29.80;99.90;;;;;;5092424;28;20216;-76
2021/07/01 10:12:16;;;;;;;8.98;2.25;;;31.30;99.90;;;;;;5092791;28;20208;-81
2021/07/01 10:14:43;;;;;;;2.17;2.03;;;33.50;99.90;;;;;;5092131;28;20209;-78
2021/07/01 10:17:11;;;;;;;1.83;1.73;;;31.40;99.90;;;;;;5092695;28;20212;-80
2021/07/01 10:19:39;;;;;;;2.13;1.83;;;32.90;99.90;;;;;;5092643;28;20255;-77
2021/07/01 10:22:08;;;;;;;2.97;2.67;;;35.60;99.90;;;;;;5092926;28;20208;-79
2021/07/01 10:24:47;;;;;;;2.40;2.20;;;35.10;99.90;;;;;;5093274;28;20208;-79
2021/07/01 10:27:33;;;;;;;4.80;4.43;;;34.20;99.90;;;;;;5092285;28;20361;-78
2021/07/01 10:30:03;;;;;;;2.53;1.95;;;35.50;99.90;;;;;;5090986;28;20295;-79
2021/07/01 10:32:42;;;;;;;2.45;2.20;;;36.40;99.90;;;;;;5088458;28;20193;-79
2021/07/01 10:35:34;;;;;;;1.45;1.35;;;37.30;99.90;;;;;;5089950;28;20672;-79
2021/07/01 10:38:08;;;;;;;1.75;1.48;;;33.80;99.90;;;;;;5077966;28;20216;-77
2021/07/01 10:40:38;;;;;;;1.67;1.58;;;31.60;99.90;;;;;;5092609;28;20608;-80
2021/07/01 10:43:08;;;;;;;6.72;3.75;;;29.00;99.90;;;;;;5090626;28;20254;-79
2021/07/01 10:45:35;;;;;;;2.10;1.73;;;28.10;99.90;;;;;;5091881;28;20225;-78
2021/07/01 10:48:14;;;;;;;3.33;2.00;;;27.80;99.90;;;;;;5089631;28;20205;-79
2021/07/01 10:50:41;;;;;;;3.75;3.28;;;27.20;99.90;;;;;;5091607;28;20250;-80
2021/07/01 10:53:30;;;;;;;3.10;2.55;;;27.10;99.90;;;;;;5091323;28;20255;-76
2021/07/01 10:56:00;;;;;;;2.30;2.10;;;27.20;99.90;;;;;;5091460;28;20214;-79
2021/07/01 10:58:30;;;;;;;3.38;1.60;;;27.50;99.90;;;;;;5091946;28;20201;-79
2021/07/01 11:00:59;;;;;;;2.10;1.67;;;27.40;99.90;;;;;;5091405;28;20250;-80
2021/07/01 11:03:29;;;;;;;2.38;2.17;;;27.70;99.90;;;;;;5089997;28;20278;-79
2021/07/01 11:05:56;;;;;;;2.00;1.80;;;27.50;99.90;;;;;;5090254;28;20313;-79
2021/07/01 11:08:25;;;;;;;9.93;8.57;;;26.60;99.90;;;;;;5091272;28;20585;-78
2021/07/01 11:10:53;;;;;;;2.17;1.98;;;27.00;99.90;;;;;;5088840;28;20704;-78
2021/07/01 11:13:23;;;;;;;4.35;2.00;;;27.00;99.90;;;;;;5088334;28;20205;-77
2021/07/01 11:16:10;;;;;;;1.85;1.70;;;27.20;99.90;;;;;;5087417;28;20284;-80
2021/07/01 11:18:39;;;;;;;1.95;1.85;;;26.90;99.90;;;;;;5087203;28;20213;-78
2021/07/01 11:21:08;;;;;;;4.57;4.13;;;26.70;99.90;;;;;;5092036;28;20202;-77
2021/07/01 11:23:36;;;;;;;2.00;1.70;;;26.80;99.90;;;;;;5090212;28;20209;-80
2021/07/01 11:26:03;;;;;;;2.08;1.52;;;27.20;99.90;;;;;;5090578;28;20232;-80
2021/07/01 11:28:30;;;;;;;2.03;1.75;;;27.00;99.90;;;;;;5090291;28;20262;-77
2021/07/01 11:31:00;;;;;;;2.30;2.13;;;27.40;99.90;;;;;;5090149;28;20205;-76
2021/07/01 11:33:30;;;;;;;2.30;2.00;;;27.00;99.90;;;;;;5091123;28;20537;-77
2021/07/01 11:36:10;;;;;;;2.40;2.20;;;27.40;99.90;;;;;;5090663;28;20249;-80
2021/07/01 11:38:37;;;;;;;2.40;2.20;;;27.10;99.90;;;;;;5091591;28;20330;-78
2021/07/01 11:41:04;;;;;;;1.65;1.38;;;27.50;99.90;;;;;;5090910;28;20288;-77
2021/07/01 11:43:32;;;;;;;9.32;5.00;;;27.30;99.90;;;;;;5091265;28;20201;-78
2021/07/01 11:46:00;;;;;;;5.20;4.40;;;27.10;99.90;;;;;;5090748;28;20282;-78
2021/07/01 11:48:30;;;;;;;1.85;1.75;;;27.20;99.90;;;;;;5091152;28;20251;-77
2021/07/01 11:50:58;;;;;;;2.75;2.50;;;27.30;99.90;;;;;;5090825;28;20255;-78
2021/07/01 11:53:26;;;;;;;2.65;2.42;;;27.10;99.90;;;;;;5090720;28;20205;-78
2021/07/01 11:55:57;;;;;;;2.22;2.03;;;27.40;99.90;;;;;;5090920;28;20251;-76
2021/07/01 11:58:24;;;;;;;3.35;2.05;;;27.00;99.90;;;;;;5090391;28;20685;-81
2021/07/01 12:00:52;;;;;;;3.20;2.90;;;27.20;99.90;;;;;;5090425;28;20677;-79
2021/07/01 12:03:20;;;;;;;3.72;3.42;;;27.50;99.90;;;;;;5088332;28;20214;-76
2021/07/01 12:05:51;;;;;;;24.65;22.42;;;27.50;99.90;;;;;;5085632;28;20578;-78
2021/07/01 12:08:19;;;;;;;4.05;3.00;;;27.90;99.90;;;;;;5087246;28;20201;-79
2021/07/01 12:10:46;;;;;;;1.77;1.67;;;28.00;99.90;;;;;;5088528;28;20200;-80
2021/07/01 12:13:43;;;;;;;2.20;2.00;;;27.80;99.90;;;;;;5087232;28;20726;-80
2021/07/01 12:16:12;;;;;;;3.67;2.13;;;27.90;99.90;;;;;;5074590;28;20251;-81
2021/07/01 12:18:56;;;;;;;2.53;2.33;;;27.90;99.90;;;;;;5090610;28;20208;-80
2021/07/01 12:21:27;;;;;;;7.47;6.15;;;27.10;99.90;;;;;;5090042;28;20231;-81
2021/07/01 12:23:56;;;;;;;8.48;7.60;;;27.20;99.90;;;;;;5088608;28;20524;-77
2021/07/01 12:26:35;;;;;;;2.22;2.05;;;27.10;99.90;;;;;;5090520;28;20233;-78
2021/07/01 12:29:03;;;;;;;3.67;2.67;;;26.90;99.90;;;;;;5090175;28;20214;-79
2021/07/01 12:31:30;;;;;;;2.40;2.20;;;26.90;99.90;;;;;;5088018;28;20202;-79
2021/07/01 12:33:58;;;;;;;5.40;2.25;;;26.70;99.90;;;;;;5090205;28;20205;-77
2021/07/01 12:36:29;;;;;;;2.47;2.25;;;26.50;99.90;;;;;;5090237;28;20250;-78
2021/07/01 12:39:28;;;;;;;2.58;2.22;;;26.80;99.90;;;;;;5089978;28;20247;-77
2021/07/01 12:42:18;;;;;;;2.10;1.90;;;27.70;99.90;;;;;;5079770;28;20197;-77
2021/07/01 12:44:46;;;;;;;2.15;1.95;;;28.00;99.90;;;;;;5087429;28;20278;-79
2021/07/01 12:47:15;;;;;;;6.35;5.70;;;28.30;99.90;;;;;;5089394;28;20233;-79
2021/07/01 12:49:46;;;;;;;3.22;1.70;;;28.00;99.90;;;;;;5089992;28;20209;-78
2021/07/01 12:52:16;;;;;;;2.55;2.17;;;27.40;99.90;;;;;;5090344;28;20296;-78
2021/07/01 12:54:57;;;;;;;1.70;1.60;;;27.10;99.90;;;;;;5089827;28;20206;-77